<?xml version='1.0' encoding='UTF-8'?>
<gpx version="1.1" creator="https://www.komoot.de" xmlns="http://www.topografix.com/GPX/1/1" xmlns:xsi="http://www.w3.org/2001/XMLSchema-instance" xsi:schemaLocation="http://www.topografix.com/GPX/1/1 http://www.topografix.com/GPX/1/1/gpx.xsd">
  <metadata>
    <name>Birnen Allee</name>
    <author>
      <link href="https://www.komoot.de">
        <text>komoot</text>
        <type>text/html</type>
      </link>
    </author>
  </metadata>
  <trk>
    <name>Birnen Allee</name>
    <trkseg>
      <trkpt lat="47.267044" lon="11.352474">
        <ele>648.866052</ele>
        <time>2025-10-31T09:55:18.984Z</time>
      </trkpt>
      <trkpt lat="47.267082" lon="11.352351">
        <ele>648.866052</ele>
        <time>2025-10-31T09:55:28.031Z</time>
      </trkpt>
      <trkpt lat="47.267099" lon="11.352212">
        <ele>648.866052</ele>
        <time>2025-10-31T09:55:37.077Z</time>
      </trkpt>
      <trkpt lat="47.267109" lon="11.352079">
        <ele>648.866052</ele>
        <time>2025-10-31T09:55:47.090Z</time>
      </trkpt>
      <trkpt lat="47.267136" lon="11.351942">
        <ele>648.866052</ele>
        <time>2025-10-31T09:55:56.088Z</time>
      </trkpt>
      <trkpt lat="47.267155" lon="11.351802">
        <ele>648.866052</ele>
        <time>2025-10-31T09:56:05.089Z</time>
      </trkpt>
      <trkpt lat="47.267215" lon="11.351702">
        <ele>648.866052</ele>
        <time>2025-10-31T09:56:12.082Z</time>
      </trkpt>
      <trkpt lat="47.267293" lon="11.351623">
        <ele>648.866052</ele>
        <time>2025-10-31T09:56:21.082Z</time>
      </trkpt>
      <trkpt lat="47.267322" lon="11.351479">
        <ele>648.866052</ele>
        <time>2025-10-31T09:56:29.091Z</time>
      </trkpt>
      <trkpt lat="47.267285" lon="11.351350">
        <ele>648.866052</ele>
        <time>2025-10-31T09:56:35.064Z</time>
      </trkpt>
      <trkpt lat="47.267287" lon="11.351213">
        <ele>648.600701</ele>
        <time>2025-10-31T09:56:43.082Z</time>
      </trkpt>
      <trkpt lat="47.267299" lon="11.351064">
        <ele>648.036644</ele>
        <time>2025-10-31T09:56:53.037Z</time>
      </trkpt>
      <trkpt lat="47.267333" lon="11.350932">
        <ele>647.505880</ele>
        <time>2025-10-31T09:57:01.065Z</time>
      </trkpt>
      <trkpt lat="47.267354" lon="11.350795">
        <ele>646.977890</ele>
        <time>2025-10-31T09:57:08.079Z</time>
      </trkpt>
      <trkpt lat="47.267410" lon="11.350680">
        <ele>646.445784</ele>
        <time>2025-10-31T09:57:16.079Z</time>
      </trkpt>
      <trkpt lat="47.267443" lon="11.350553">
        <ele>645.934557</ele>
        <time>2025-10-31T09:57:25.089Z</time>
      </trkpt>
      <trkpt lat="47.267462" lon="11.350421">
        <ele>645.427299</ele>
        <time>2025-10-31T09:57:33.084Z</time>
      </trkpt>
      <trkpt lat="47.267494" lon="11.350290">
        <ele>644.903905</ele>
        <time>2025-10-31T09:57:42.083Z</time>
      </trkpt>
      <trkpt lat="47.267527" lon="11.350154">
        <ele>644.360948</ele>
        <time>2025-10-31T09:57:51.083Z</time>
      </trkpt>
      <trkpt lat="47.267563" lon="11.350029">
        <ele>643.850476</ele>
        <time>2025-10-31T09:57:59.091Z</time>
      </trkpt>
      <trkpt lat="47.267592" lon="11.349901">
        <ele>643.343185</ele>
        <time>2025-10-31T09:58:07.079Z</time>
      </trkpt>
      <trkpt lat="47.267627" lon="11.349764">
        <ele>642.792883</ele>
        <time>2025-10-31T09:58:16.061Z</time>
      </trkpt>
      <trkpt lat="47.267650" lon="11.349620">
        <ele>642.236764</ele>
        <time>2025-10-31T09:58:24.078Z</time>
      </trkpt>
      <trkpt lat="47.267671" lon="11.349477">
        <ele>641.686753</ele>
        <time>2025-10-31T09:58:32.056Z</time>
      </trkpt>
      <trkpt lat="47.267702" lon="11.349350">
        <ele>641.179385</ele>
        <time>2025-10-31T09:58:40.077Z</time>
      </trkpt>
      <trkpt lat="47.267715" lon="11.349216">
        <ele>640.670530</ele>
        <time>2025-10-31T09:58:47.079Z</time>
      </trkpt>
      <trkpt lat="47.267740" lon="11.349086">
        <ele>640.162587</ele>
        <time>2025-10-31T09:58:54.091Z</time>
      </trkpt>
      <trkpt lat="47.267785" lon="11.348950">
        <ele>639.593795</ele>
        <time>2025-10-31T09:59:02.085Z</time>
      </trkpt>
      <trkpt lat="47.267850" lon="11.348854">
        <ele>639.083989</ele>
        <time>2025-10-31T09:59:11.082Z</time>
      </trkpt>
      <trkpt lat="47.267859" lon="11.348721">
        <ele>638.474118</ele>
        <time>2025-10-31T09:59:20.074Z</time>
      </trkpt>
      <trkpt lat="47.267841" lon="11.348582">
        <ele>637.763749</ele>
        <time>2025-10-31T09:59:28.089Z</time>
      </trkpt>
      <trkpt lat="47.267781" lon="11.348458">
        <ele>636.999224</ele>
        <time>2025-10-31T09:59:35.075Z</time>
      </trkpt>
      <trkpt lat="47.267741" lon="11.348331">
        <ele>636.296359</ele>
        <time>2025-10-31T09:59:42.073Z</time>
      </trkpt>
      <trkpt lat="47.267718" lon="11.348184">
        <ele>635.539059</ele>
        <time>2025-10-31T09:59:51.090Z</time>
      </trkpt>
      <trkpt lat="47.267700" lon="11.348036">
        <ele>634.784262</ele>
        <time>2025-10-31T10:00:00.081Z</time>
      </trkpt>
      <trkpt lat="47.267679" lon="11.347901">
        <ele>634.088985</ele>
        <time>2025-10-31T10:00:08.070Z</time>
      </trkpt>
      <trkpt lat="47.267672" lon="11.347756">
        <ele>633.359247</ele>
        <time>2025-10-31T10:00:17.093Z</time>
      </trkpt>
      <trkpt lat="47.267642" lon="11.347627">
        <ele>632.674693</ele>
        <time>2025-10-31T10:00:25.093Z</time>
      </trkpt>
      <trkpt lat="47.267625" lon="11.347484">
        <ele>631.945901</ele>
        <time>2025-10-31T10:00:31.089Z</time>
      </trkpt>
      <trkpt lat="47.267589" lon="11.347361">
        <ele>631.273455</ele>
        <time>2025-10-31T10:00:37.093Z</time>
      </trkpt>
      <trkpt lat="47.267549" lon="11.347230">
        <ele>630.552325</ele>
        <time>2025-10-31T10:00:45.081Z</time>
      </trkpt>
      <trkpt lat="47.267506" lon="11.347112">
        <ele>629.879954</ele>
        <time>2025-10-31T10:00:52.092Z</time>
      </trkpt>
      <trkpt lat="47.267472" lon="11.346989">
        <ele>629.213228</ele>
        <time>2025-10-31T10:01:00.099Z</time>
      </trkpt>
      <trkpt lat="47.267423" lon="11.346871">
        <ele>628.518754</ele>
        <time>2025-10-31T10:01:08.087Z</time>
      </trkpt>
      <trkpt lat="47.267368" lon="11.346740">
        <ele>627.745437</ele>
        <time>2025-10-31T10:01:17.081Z</time>
      </trkpt>
      <trkpt lat="47.267311" lon="11.346611">
        <ele>626.972665</ele>
        <time>2025-10-31T10:01:25.090Z</time>
      </trkpt>
      <trkpt lat="47.267306" lon="11.346464">
        <ele>626.233796</ele>
        <time>2025-10-31T10:01:33.074Z</time>
      </trkpt>
      <trkpt lat="47.267371" lon="11.346353">
        <ele>625.625135</ele>
        <time>2025-10-31T10:01:40.083Z</time>
      </trkpt>
      <trkpt lat="47.267383" lon="11.346222">
        <ele>625.824322</ele>
        <time>2025-10-31T10:01:47.063Z</time>
      </trkpt>
      <trkpt lat="47.267410" lon="11.346092">
        <ele>626.029183</ele>
        <time>2025-10-31T10:01:54.032Z</time>
      </trkpt>
      <trkpt lat="47.267488" lon="11.346004">
        <ele>626.247320</ele>
        <time>2025-10-31T10:02:03.082Z</time>
      </trkpt>
      <trkpt lat="47.267568" lon="11.345934">
        <ele>626.453922</ele>
        <time>2025-10-31T10:02:12.088Z</time>
      </trkpt>
      <trkpt lat="47.267656" lon="11.345872">
        <ele>626.670519</ele>
        <time>2025-10-31T10:02:21.080Z</time>
      </trkpt>
      <trkpt lat="47.267726" lon="11.345783">
        <ele>626.875817</ele>
        <time>2025-10-31T10:02:29.091Z</time>
      </trkpt>
      <trkpt lat="47.267770" lon="11.345667">
        <ele>627.076065</ele>
        <time>2025-10-31T10:02:35.085Z</time>
      </trkpt>
      <trkpt lat="47.267808" lon="11.345544">
        <ele>627.279710</ele>
        <time>2025-10-31T10:02:43.088Z</time>
      </trkpt>
      <trkpt lat="47.267826" lon="11.345405">
        <ele>627.492940</ele>
        <time>2025-10-31T10:02:50.091Z</time>
      </trkpt>
      <trkpt lat="47.267836" lon="11.345272">
        <ele>627.694576</ele>
        <time>2025-10-31T10:02:58.099Z</time>
      </trkpt>
      <trkpt lat="47.267887" lon="11.345143">
        <ele>627.919542</ele>
        <time>2025-10-31T10:03:09.088Z</time>
      </trkpt>
      <trkpt lat="47.267955" lon="11.345036">
        <ele>628.140442</ele>
        <time>2025-10-31T10:03:19.054Z</time>
      </trkpt>
      <trkpt lat="47.268019" lon="11.344942">
        <ele>628.341091</ele>
        <time>2025-10-31T10:03:28.061Z</time>
      </trkpt>
      <trkpt lat="47.268076" lon="11.344833">
        <ele>628.548448</ele>
        <time>2025-10-31T10:03:40.085Z</time>
      </trkpt>
      <trkpt lat="47.268140" lon="11.344739">
        <ele>628.749097</ele>
        <time>2025-10-31T10:03:53.086Z</time>
      </trkpt>
      <trkpt lat="47.268196" lon="11.344629">
        <ele>628.956310</ele>
        <time>2025-10-31T10:04:04.078Z</time>
      </trkpt>
      <trkpt lat="47.268210" lon="11.344473">
        <ele>629.193421</ele>
        <time>2025-10-31T10:04:14.079Z</time>
      </trkpt>
      <trkpt lat="47.268232" lon="11.344334">
        <ele>629.408492</ele>
        <time>2025-10-31T10:04:25.090Z</time>
      </trkpt>
      <trkpt lat="47.268273" lon="11.344212">
        <ele>629.653021</ele>
        <time>2025-10-31T10:04:34.082Z</time>
      </trkpt>
      <trkpt lat="47.268319" lon="11.344084">
        <ele>630.231824</ele>
        <time>2025-10-31T10:04:47.081Z</time>
      </trkpt>
      <trkpt lat="47.268337" lon="11.343943">
        <ele>630.805155</ele>
        <time>2025-10-31T10:04:57.078Z</time>
      </trkpt>
      <trkpt lat="47.268370" lon="11.343776">
        <ele>631.500219</ele>
        <time>2025-10-31T10:05:18.087Z</time>
      </trkpt>
      <trkpt lat="47.268364" lon="11.343632">
        <ele>632.076737</ele>
        <time>2025-10-31T10:05:27.084Z</time>
      </trkpt>
      <trkpt lat="47.268351" lon="11.343491">
        <ele>632.645360</ele>
        <time>2025-10-31T10:05:36.093Z</time>
      </trkpt>
      <trkpt lat="47.268327" lon="11.343306">
        <ele>633.398022</ele>
        <time>2025-10-31T10:06:01.089Z</time>
      </trkpt>
      <trkpt lat="47.268308" lon="11.343169">
        <ele>633.956801</ele>
        <time>2025-10-31T10:06:10.086Z</time>
      </trkpt>
      <trkpt lat="47.268281" lon="11.343037">
        <ele>634.507727</ele>
        <time>2025-10-31T10:06:18.086Z</time>
      </trkpt>
      <trkpt lat="47.268266" lon="11.342898">
        <ele>635.070161</ele>
        <time>2025-10-31T10:06:27.080Z</time>
      </trkpt>
      <trkpt lat="47.268206" lon="11.342793">
        <ele>635.618708</ele>
        <time>2025-10-31T10:06:39.083Z</time>
      </trkpt>
      <trkpt lat="47.268195" lon="11.342657">
        <ele>636.166022</ele>
        <time>2025-10-31T10:07:07.081Z</time>
      </trkpt>
      <trkpt lat="47.268166" lon="11.342524">
        <ele>636.724266</ele>
        <time>2025-10-31T10:07:16.086Z</time>
      </trkpt>
      <trkpt lat="47.268146" lon="11.342388">
        <ele>637.280350</ele>
        <time>2025-10-31T10:07:26.075Z</time>
      </trkpt>
      <trkpt lat="47.268124" lon="11.342249">
        <ele>637.850715</ele>
        <time>2025-10-31T10:07:35.092Z</time>
      </trkpt>
      <trkpt lat="47.268117" lon="11.342104">
        <ele>638.431612</ele>
        <time>2025-10-31T10:07:45.035Z</time>
      </trkpt>
      <trkpt lat="47.268102" lon="11.341969">
        <ele>638.978268</ele>
        <time>2025-10-31T10:07:55.077Z</time>
      </trkpt>
      <trkpt lat="47.268079" lon="11.341828">
        <ele>639.557768</ele>
        <time>2025-10-31T10:08:05.087Z</time>
      </trkpt>
      <trkpt lat="47.268047" lon="11.341693">
        <ele>640.129208</ele>
        <time>2025-10-31T10:08:14.082Z</time>
      </trkpt>
      <trkpt lat="47.267982" lon="11.341583">
        <ele>640.350020</ele>
        <time>2025-10-31T10:08:23.089Z</time>
      </trkpt>
      <trkpt lat="47.267977" lon="11.341439">
        <ele>640.532658</ele>
        <time>2025-10-31T10:08:56.089Z</time>
      </trkpt>
      <trkpt lat="47.267946" lon="11.341302">
        <ele>640.715584</ele>
        <time>2025-10-31T10:09:04.094Z</time>
      </trkpt>
      <trkpt lat="47.267909" lon="11.341175">
        <ele>640.890649</ele>
        <time>2025-10-31T10:09:20.091Z</time>
      </trkpt>
      <trkpt lat="47.267885" lon="11.341043">
        <ele>641.063746</ele>
        <time>2025-10-31T10:09:39.087Z</time>
      </trkpt>
      <trkpt lat="47.267848" lon="11.340910">
        <ele>641.245820</ele>
        <time>2025-10-31T10:09:47.090Z</time>
      </trkpt>
      <trkpt lat="47.267831" lon="11.340764">
        <ele>641.433456</ele>
        <time>2025-10-31T10:09:57.082Z</time>
      </trkpt>
      <trkpt lat="47.267816" lon="11.340624">
        <ele>641.612985</ele>
        <time>2025-10-31T10:10:07.075Z</time>
      </trkpt>
      <trkpt lat="47.267787" lon="11.340489">
        <ele>641.792348</ele>
        <time>2025-10-31T10:10:16.060Z</time>
      </trkpt>
      <trkpt lat="47.267764" lon="11.340355">
        <ele>641.967427</ele>
        <time>2025-10-31T10:10:26.081Z</time>
      </trkpt>
      <trkpt lat="47.267738" lon="11.340220">
        <ele>642.145180</ele>
        <time>2025-10-31T10:10:35.099Z</time>
      </trkpt>
      <trkpt lat="47.267711" lon="11.340087">
        <ele>642.321024</ele>
        <time>2025-10-31T10:10:44.087Z</time>
      </trkpt>
      <trkpt lat="47.267691" lon="11.339958">
        <ele>642.488635</ele>
        <time>2025-10-31T10:10:52.087Z</time>
      </trkpt>
      <trkpt lat="47.267661" lon="11.339820">
        <ele>642.672186</ele>
        <time>2025-10-31T10:11:00.085Z</time>
      </trkpt>
      <trkpt lat="47.267628" lon="11.339681">
        <ele>642.858717</ele>
        <time>2025-10-31T10:11:09.054Z</time>
      </trkpt>
      <trkpt lat="47.267606" lon="11.339550">
        <ele>643.029657</ele>
        <time>2025-10-31T10:11:25.087Z</time>
      </trkpt>
      <trkpt lat="47.267579" lon="11.339408">
        <ele>643.216451</ele>
        <time>2025-10-31T10:11:33.080Z</time>
      </trkpt>
      <trkpt lat="47.267560" lon="11.339275">
        <ele>643.388611</ele>
        <time>2025-10-31T10:11:42.085Z</time>
      </trkpt>
      <trkpt lat="47.267544" lon="11.339136">
        <ele>643.557301</ele>
        <time>2025-10-31T10:11:51.089Z</time>
      </trkpt>
      <trkpt lat="47.267511" lon="11.338997">
        <ele>643.677333</ele>
        <time>2025-10-31T10:12:00.092Z</time>
      </trkpt>
      <trkpt lat="47.267494" lon="11.338849">
        <ele>643.799682</ele>
        <time>2025-10-31T10:12:09.096Z</time>
      </trkpt>
      <trkpt lat="47.267473" lon="11.338715">
        <ele>643.911780</ele>
        <time>2025-10-31T10:12:18.083Z</time>
      </trkpt>
      <trkpt lat="47.267440" lon="11.338583">
        <ele>644.026442</ele>
        <time>2025-10-31T10:12:26.089Z</time>
      </trkpt>
      <trkpt lat="47.267423" lon="11.338443">
        <ele>644.142367</ele>
        <time>2025-10-31T10:12:35.095Z</time>
      </trkpt>
      <trkpt lat="47.267404" lon="11.338308">
        <ele>644.254747</ele>
        <time>2025-10-31T10:12:43.097Z</time>
      </trkpt>
      <trkpt lat="47.267383" lon="11.338164">
        <ele>644.374800</ele>
        <time>2025-10-31T10:12:52.065Z</time>
      </trkpt>
      <trkpt lat="47.267356" lon="11.338036">
        <ele>644.484057</ele>
        <time>2025-10-31T10:13:00.064Z</time>
      </trkpt>
      <trkpt lat="47.267341" lon="11.337901">
        <ele>644.595560</ele>
        <time>2025-10-31T10:13:08.075Z</time>
      </trkpt>
      <trkpt lat="47.267320" lon="11.337767">
        <ele>644.707658</ele>
        <time>2025-10-31T10:13:17.091Z</time>
      </trkpt>
      <trkpt lat="47.267299" lon="11.337629">
        <ele>644.822935</ele>
        <time>2025-10-31T10:13:26.089Z</time>
      </trkpt>
      <trkpt lat="47.267272" lon="11.337489">
        <ele>644.941567</ele>
        <time>2025-10-31T10:13:35.087Z</time>
      </trkpt>
      <trkpt lat="47.267257" lon="11.337347">
        <ele>645.058705</ele>
        <time>2025-10-31T10:13:45.090Z</time>
      </trkpt>
      <trkpt lat="47.267233" lon="11.337208">
        <ele>645.175613</ele>
        <time>2025-10-31T10:13:56.091Z</time>
      </trkpt>
      <trkpt lat="47.267199" lon="11.337085">
        <ele>645.283869</ele>
        <time>2025-10-31T10:14:04.082Z</time>
      </trkpt>
      <trkpt lat="47.267209" lon="11.336950">
        <ele>645.394561</ele>
        <time>2025-10-31T10:14:14.084Z</time>
      </trkpt>
      <trkpt lat="47.267216" lon="11.336810">
        <ele>645.508984</ele>
        <time>2025-10-31T10:14:25.089Z</time>
      </trkpt>
      <trkpt lat="47.267313" lon="11.336838">
        <ele>645.627713</ele>
        <time>2025-10-31T10:14:46.085Z</time>
      </trkpt>
      <trkpt lat="47.267367" lon="11.336954">
        <ele>645.819462</ele>
        <time>2025-10-31T10:14:55.088Z</time>
      </trkpt>
      <trkpt lat="47.267427" lon="11.337070">
        <ele>646.154327</ele>
        <time>2025-10-31T10:15:04.081Z</time>
      </trkpt>
      <trkpt lat="47.267461" lon="11.337208">
        <ele>646.491391</ele>
        <time>2025-10-31T10:15:16.078Z</time>
      </trkpt>
      <trkpt lat="47.267480" lon="11.337343">
        <ele>646.807926</ele>
        <time>2025-10-31T10:15:25.081Z</time>
      </trkpt>
      <trkpt lat="47.267484" lon="11.337482">
        <ele>647.127336</ele>
        <time>2025-10-31T10:15:35.048Z</time>
      </trkpt>
      <trkpt lat="47.267520" lon="11.337606">
        <ele>647.436982</ele>
        <time>2025-10-31T10:15:46.090Z</time>
      </trkpt>
      <trkpt lat="47.267562" lon="11.337728">
        <ele>647.751059</ele>
        <time>2025-10-31T10:15:57.075Z</time>
      </trkpt>
      <trkpt lat="47.267577" lon="11.337882">
        <ele>648.108242</ele>
        <time>2025-10-31T10:16:09.082Z</time>
      </trkpt>
      <trkpt lat="47.267618" lon="11.338003">
        <ele>648.418747</ele>
        <time>2025-10-31T10:16:19.083Z</time>
      </trkpt>
      <trkpt lat="47.267668" lon="11.338123">
        <ele>648.742039</ele>
        <time>2025-10-31T10:16:29.089Z</time>
      </trkpt>
      <trkpt lat="47.267727" lon="11.338224">
        <ele>649.048005</ele>
        <time>2025-10-31T10:16:40.098Z</time>
      </trkpt>
      <trkpt lat="47.267761" lon="11.338355">
        <ele>649.370008</ele>
        <time>2025-10-31T10:16:49.083Z</time>
      </trkpt>
      <trkpt lat="47.267834" lon="11.338439">
        <ele>649.683363</ele>
        <time>2025-10-31T10:16:59.069Z</time>
      </trkpt>
      <trkpt lat="47.267882" lon="11.338557">
        <ele>649.999219</ele>
        <time>2025-10-31T10:17:09.090Z</time>
      </trkpt>
      <trkpt lat="47.267938" lon="11.338682">
        <ele>650.343100</ele>
        <time>2025-10-31T10:17:19.081Z</time>
      </trkpt>
      <trkpt lat="47.267992" lon="11.338789">
        <ele>650.649245</ele>
        <time>2025-10-31T10:17:27.083Z</time>
      </trkpt>
      <trkpt lat="47.268062" lon="11.338888">
        <ele>650.977496</ele>
        <time>2025-10-31T10:17:39.086Z</time>
      </trkpt>
      <trkpt lat="47.268130" lon="11.338982">
        <ele>651.292937</ele>
        <time>2025-10-31T10:17:50.084Z</time>
      </trkpt>
      <trkpt lat="47.268207" lon="11.339056">
        <ele>651.603954</ele>
        <time>2025-10-31T10:18:10.075Z</time>
      </trkpt>
      <trkpt lat="47.268290" lon="11.339142">
        <ele>652.012817</ele>
        <time>2025-10-31T10:18:21.057Z</time>
      </trkpt>
      <trkpt lat="47.268378" lon="11.339203">
        <ele>652.475131</ele>
        <time>2025-10-31T10:18:28.055Z</time>
      </trkpt>
      <trkpt lat="47.268469" lon="11.339237">
        <ele>652.921425</ele>
        <time>2025-10-31T10:18:36.087Z</time>
      </trkpt>
      <trkpt lat="47.268547" lon="11.339323">
        <ele>653.384523</ele>
        <time>2025-10-31T10:18:48.080Z</time>
      </trkpt>
      <trkpt lat="47.268624" lon="11.339406">
        <ele>653.838044</ele>
        <time>2025-10-31T10:18:55.077Z</time>
      </trkpt>
      <trkpt lat="47.268708" lon="11.339461">
        <ele>654.275013</ele>
        <time>2025-10-31T10:19:03.049Z</time>
      </trkpt>
      <trkpt lat="47.268775" lon="11.339558">
        <ele>654.721511</ele>
        <time>2025-10-31T10:19:12.033Z</time>
      </trkpt>
      <trkpt lat="47.268838" lon="11.339658">
        <ele>655.161690</ele>
        <time>2025-10-31T10:19:24.079Z</time>
      </trkpt>
      <trkpt lat="47.268888" lon="11.339771">
        <ele>655.596860</ele>
        <time>2025-10-31T10:19:33.084Z</time>
      </trkpt>
      <trkpt lat="47.268929" lon="11.339901">
        <ele>656.059298</ele>
        <time>2025-10-31T10:19:43.055Z</time>
      </trkpt>
      <trkpt lat="47.268971" lon="11.340029">
        <ele>656.517944</ele>
        <time>2025-10-31T10:19:52.075Z</time>
      </trkpt>
      <trkpt lat="47.269017" lon="11.340150">
        <ele>656.965351</ele>
        <time>2025-10-31T10:20:04.035Z</time>
      </trkpt>
      <trkpt lat="47.269067" lon="11.340275">
        <ele>657.433422</ele>
        <time>2025-10-31T10:20:15.079Z</time>
      </trkpt>
      <trkpt lat="47.269125" lon="11.340380">
        <ele>657.870171</ele>
        <time>2025-10-31T10:20:24.090Z</time>
      </trkpt>
      <trkpt lat="47.269192" lon="11.340488">
        <ele>658.342213</ele>
        <time>2025-10-31T10:20:36.084Z</time>
      </trkpt>
      <trkpt lat="47.269255" lon="11.340596">
        <ele>658.801638</ele>
        <time>2025-10-31T10:20:45.081Z</time>
      </trkpt>
      <trkpt lat="47.269310" lon="11.340708">
        <ele>659.247614</ele>
        <time>2025-10-31T10:20:54.085Z</time>
      </trkpt>
      <trkpt lat="47.269385" lon="11.340793">
        <ele>659.697397</ele>
        <time>2025-10-31T10:21:04.084Z</time>
      </trkpt>
      <trkpt lat="47.269443" lon="11.340904">
        <ele>660.149320</ele>
        <time>2025-10-31T10:21:13.076Z</time>
      </trkpt>
      <trkpt lat="47.269489" lon="11.341038">
        <ele>660.621493</ele>
        <time>2025-10-31T10:21:26.081Z</time>
      </trkpt>
      <trkpt lat="47.269515" lon="11.341181">
        <ele>661.079407</ele>
        <time>2025-10-31T10:21:36.069Z</time>
      </trkpt>
      <trkpt lat="47.269512" lon="11.341318">
        <ele>661.503381</ele>
        <time>2025-10-31T10:21:45.077Z</time>
      </trkpt>
      <trkpt lat="47.269506" lon="11.341458">
        <ele>661.937275</ele>
        <time>2025-10-31T10:21:54.080Z</time>
      </trkpt>
      <trkpt lat="47.269488" lon="11.341593">
        <ele>662.362827</ele>
        <time>2025-10-31T10:22:03.074Z</time>
      </trkpt>
      <trkpt lat="47.269477" lon="11.341731">
        <ele>662.792608</ele>
        <time>2025-10-31T10:22:12.085Z</time>
      </trkpt>
      <trkpt lat="47.269455" lon="11.341859">
        <ele>663.201027</ele>
        <time>2025-10-31T10:22:21.083Z</time>
      </trkpt>
      <trkpt lat="47.269446" lon="11.341996">
        <ele>663.626761</ele>
        <time>2025-10-31T10:22:31.090Z</time>
      </trkpt>
      <trkpt lat="47.269451" lon="11.342132">
        <ele>664.048039</ele>
        <time>2025-10-31T10:22:44.074Z</time>
      </trkpt>
      <trkpt lat="47.269460" lon="11.342272">
        <ele>664.483010</ele>
        <time>2025-10-31T10:22:55.093Z</time>
      </trkpt>
      <trkpt lat="47.269480" lon="11.342405">
        <ele>664.904372</ele>
        <time>2025-10-31T10:23:08.052Z</time>
      </trkpt>
      <trkpt lat="47.269486" lon="11.342553">
        <ele>665.362965</ele>
        <time>2025-10-31T10:23:19.054Z</time>
      </trkpt>
      <trkpt lat="47.269472" lon="11.342706">
        <ele>665.840491</ele>
        <time>2025-10-31T10:23:27.089Z</time>
      </trkpt>
      <trkpt lat="47.269475" lon="11.342846">
        <ele>666.273739</ele>
        <time>2025-10-31T10:23:35.091Z</time>
      </trkpt>
      <trkpt lat="47.269497" lon="11.342991">
        <ele>666.733312</ele>
        <time>2025-10-31T10:23:47.068Z</time>
      </trkpt>
      <trkpt lat="47.269529" lon="11.343117">
        <ele>667.149444</ele>
        <time>2025-10-31T10:23:54.087Z</time>
      </trkpt>
      <trkpt lat="47.269555" lon="11.343248">
        <ele>667.571615</ele>
        <time>2025-10-31T10:24:06.080Z</time>
      </trkpt>
      <trkpt lat="47.269550" lon="11.343389">
        <ele>668.008335</ele>
        <time>2025-10-31T10:24:14.087Z</time>
      </trkpt>
      <trkpt lat="47.269557" lon="11.343544">
        <ele>668.488824</ele>
        <time>2025-10-31T10:24:22.085Z</time>
      </trkpt>
      <trkpt lat="47.269568" lon="11.343681">
        <ele>668.444820</ele>
        <time>2025-10-31T10:24:31.089Z</time>
      </trkpt>
      <trkpt lat="47.269594" lon="11.343811">
        <ele>668.345701</ele>
        <time>2025-10-31T10:24:48.073Z</time>
      </trkpt>
      <trkpt lat="47.269593" lon="11.343950">
        <ele>668.244038</ele>
        <time>2025-10-31T10:25:01.031Z</time>
      </trkpt>
      <trkpt lat="47.269614" lon="11.344094">
        <ele>668.136320</ele>
        <time>2025-10-31T10:25:16.085Z</time>
      </trkpt>
      <trkpt lat="47.269621" lon="11.344231">
        <ele>668.035841</ele>
        <time>2025-10-31T10:25:29.099Z</time>
      </trkpt>
      <trkpt lat="47.269637" lon="11.344361">
        <ele>667.939215</ele>
        <time>2025-10-31T10:25:42.086Z</time>
      </trkpt>
      <trkpt lat="47.269634" lon="11.344501">
        <ele>667.836776</ele>
        <time>2025-10-31T10:25:57.042Z</time>
      </trkpt>
      <trkpt lat="47.269629" lon="11.344652">
        <ele>667.726211</ele>
        <time>2025-10-31T10:26:08.041Z</time>
      </trkpt>
      <trkpt lat="47.269615" lon="11.344793">
        <ele>667.621993</ele>
        <time>2025-10-31T10:26:18.027Z</time>
      </trkpt>
      <trkpt lat="47.269633" lon="11.344934">
        <ele>667.517064</ele>
        <time>2025-10-31T10:26:32.039Z</time>
      </trkpt>
      <trkpt lat="47.269627" lon="11.345080">
        <ele>667.410092</ele>
        <time>2025-10-31T10:26:41.065Z</time>
      </trkpt>
      <trkpt lat="47.269584" lon="11.345209">
        <ele>667.304979</ele>
        <time>2025-10-31T10:26:50.058Z</time>
      </trkpt>
      <trkpt lat="47.269547" lon="11.345337">
        <ele>667.203226</ele>
        <time>2025-10-31T10:26:58.058Z</time>
      </trkpt>
      <trkpt lat="47.269506" lon="11.345466">
        <ele>667.099046</ele>
        <time>2025-10-31T10:27:06.071Z</time>
      </trkpt>
      <trkpt lat="47.269461" lon="11.345587">
        <ele>666.998133</ele>
        <time>2025-10-31T10:27:14.073Z</time>
      </trkpt>
      <trkpt lat="47.269421" lon="11.345725">
        <ele>666.888384</ele>
        <time>2025-10-31T10:27:25.080Z</time>
      </trkpt>
      <trkpt lat="47.269373" lon="11.345850">
        <ele>666.783342</ele>
        <time>2025-10-31T10:27:35.077Z</time>
      </trkpt>
      <trkpt lat="47.269362" lon="11.346096">
        <ele>666.603039</ele>
        <time>2025-10-31T10:27:58.079Z</time>
      </trkpt>
      <trkpt lat="47.269469" lon="11.346228">
        <ele>667.620556</ele>
        <time>2025-10-31T10:28:22.095Z</time>
      </trkpt>
      <trkpt lat="47.269547" lon="11.346301">
        <ele>668.330939</ele>
        <time>2025-10-31T10:28:32.039Z</time>
      </trkpt>
      <trkpt lat="47.269588" lon="11.346442">
        <ele>669.131206</ele>
        <time>2025-10-31T10:28:42.087Z</time>
      </trkpt>
      <trkpt lat="47.269600" lon="11.346589">
        <ele>669.903608</ele>
        <time>2025-10-31T10:28:49.077Z</time>
      </trkpt>
      <trkpt lat="47.269601" lon="11.346733">
        <ele>670.654869</ele>
        <time>2025-10-31T10:28:55.079Z</time>
      </trkpt>
      <trkpt lat="47.269596" lon="11.346877">
        <ele>671.407074</ele>
        <time>2025-10-31T10:29:03.079Z</time>
      </trkpt>
      <trkpt lat="47.269595" lon="11.347020">
        <ele>672.153118</ele>
        <time>2025-10-31T10:29:11.079Z</time>
      </trkpt>
      <trkpt lat="47.269582" lon="11.347163">
        <ele>672.905789</ele>
        <time>2025-10-31T10:29:23.081Z</time>
      </trkpt>
      <trkpt lat="47.269560" lon="11.347296">
        <ele>673.619945</ele>
        <time>2025-10-31T10:29:34.051Z</time>
      </trkpt>
      <trkpt lat="47.269537" lon="11.347432">
        <ele>674.351136</ele>
        <time>2025-10-31T10:29:46.091Z</time>
      </trkpt>
      <trkpt lat="47.269517" lon="11.347563">
        <ele>675.051625</ele>
        <time>2025-10-31T10:29:58.074Z</time>
      </trkpt>
      <trkpt lat="47.269498" lon="11.347697">
        <ele>675.765779</ele>
        <time>2025-10-31T10:30:07.091Z</time>
      </trkpt>
      <trkpt lat="47.269500" lon="11.347833">
        <ele>676.475434</ele>
        <time>2025-10-31T10:30:16.087Z</time>
      </trkpt>
      <trkpt lat="47.269488" lon="11.347976">
        <ele>677.227123</ele>
        <time>2025-10-31T10:30:26.089Z</time>
      </trkpt>
      <trkpt lat="47.269491" lon="11.348121">
        <ele>677.983915</ele>
        <time>2025-10-31T10:30:34.079Z</time>
      </trkpt>
      <trkpt lat="47.269500" lon="11.348260">
        <ele>678.712348</ele>
        <time>2025-10-31T10:30:48.081Z</time>
      </trkpt>
      <trkpt lat="47.269473" lon="11.348387">
        <ele>679.406643</ele>
        <time>2025-10-31T10:30:56.085Z</time>
      </trkpt>
      <trkpt lat="47.269435" lon="11.348518">
        <ele>680.149876</ele>
        <time>2025-10-31T10:31:04.088Z</time>
      </trkpt>
      <trkpt lat="47.269391" lon="11.348651">
        <ele>680.471617</ele>
        <time>2025-10-31T10:31:15.085Z</time>
      </trkpt>
      <trkpt lat="47.269353" lon="11.348780">
        <ele>680.541060</ele>
        <time>2025-10-31T10:31:27.089Z</time>
      </trkpt>
      <trkpt lat="47.269309" lon="11.348901">
        <ele>680.608849</ele>
        <time>2025-10-31T10:31:38.033Z</time>
      </trkpt>
      <trkpt lat="47.269368" lon="11.349015">
        <ele>680.679647</ele>
        <time>2025-10-31T10:31:53.083Z</time>
      </trkpt>
      <trkpt lat="47.269455" lon="11.349073">
        <ele>680.749135</ele>
        <time>2025-10-31T10:32:02.089Z</time>
      </trkpt>
      <trkpt lat="47.269480" lon="11.349219">
        <ele>680.823490</ele>
        <time>2025-10-31T10:32:13.090Z</time>
      </trkpt>
      <trkpt lat="47.269458" lon="11.349360">
        <ele>680.894932</ele>
        <time>2025-10-31T10:32:21.080Z</time>
      </trkpt>
      <trkpt lat="47.269404" lon="11.349491">
        <ele>680.970621</ele>
        <time>2025-10-31T10:32:29.088Z</time>
      </trkpt>
      <trkpt lat="47.269374" lon="11.349618">
        <ele>681.037024</ele>
        <time>2025-10-31T10:32:36.073Z</time>
      </trkpt>
      <trkpt lat="47.269332" lon="11.349742">
        <ele>681.105460</ele>
        <time>2025-10-31T10:33:08.071Z</time>
      </trkpt>
      <trkpt lat="47.269286" lon="11.349863">
        <ele>681.173948</ele>
        <time>2025-10-31T10:33:18.099Z</time>
      </trkpt>
      <trkpt lat="47.269240" lon="11.349990">
        <ele>681.245035</ele>
        <time>2025-10-31T10:33:27.078Z</time>
      </trkpt>
      <trkpt lat="47.269195" lon="11.350105">
        <ele>681.310588</ele>
        <time>2025-10-31T10:33:35.086Z</time>
      </trkpt>
      <trkpt lat="47.269167" lon="11.350244">
        <ele>681.382187</ele>
        <time>2025-10-31T10:33:46.080Z</time>
      </trkpt>
      <trkpt lat="47.269143" lon="11.350378">
        <ele>681.450622</ele>
        <time>2025-10-31T10:33:55.087Z</time>
      </trkpt>
      <trkpt lat="47.269130" lon="11.350519">
        <ele>681.520888</ele>
        <time>2025-10-31T10:34:05.092Z</time>
      </trkpt>
      <trkpt lat="47.269130" lon="11.350658">
        <ele>681.589526</ele>
        <time>2025-10-31T10:34:17.096Z</time>
      </trkpt>
      <trkpt lat="47.269135" lon="11.350800">
        <ele>681.659740</ele>
        <time>2025-10-31T10:34:28.083Z</time>
      </trkpt>
      <trkpt lat="47.269139" lon="11.350938">
        <ele>681.727946</ele>
        <time>2025-10-31T10:34:38.070Z</time>
      </trkpt>
      <trkpt lat="47.269142" lon="11.351086">
        <ele>681.809066</ele>
        <time>2025-10-31T10:34:48.087Z</time>
      </trkpt>
      <trkpt lat="47.269164" lon="11.351216">
        <ele>681.883060</ele>
        <time>2025-10-31T10:34:57.087Z</time>
      </trkpt>
      <trkpt lat="47.269197" lon="11.351352">
        <ele>681.962827</ele>
        <time>2025-10-31T10:35:07.081Z</time>
      </trkpt>
      <trkpt lat="47.269214" lon="11.351484">
        <ele>682.037029</ele>
        <time>2025-10-31T10:35:17.077Z</time>
      </trkpt>
      <trkpt lat="47.269235" lon="11.351621">
        <ele>682.114596</ele>
        <time>2025-10-31T10:35:33.089Z</time>
      </trkpt>
      <trkpt lat="47.269289" lon="11.351740">
        <ele>682.193658</ele>
        <time>2025-10-31T10:35:42.090Z</time>
      </trkpt>
      <trkpt lat="47.269353" lon="11.351843">
        <ele>682.270788</ele>
        <time>2025-10-31T10:35:52.084Z</time>
      </trkpt>
      <trkpt lat="47.269409" lon="11.352017">
        <ele>682.377145</ele>
        <time>2025-10-31T10:36:17.087Z</time>
      </trkpt>
      <trkpt lat="47.269468" lon="11.352121">
        <ele>682.452010</ele>
        <time>2025-10-31T10:36:27.098Z</time>
      </trkpt>
      <trkpt lat="47.269509" lon="11.352251">
        <ele>682.531181</ele>
        <time>2025-10-31T10:36:38.082Z</time>
      </trkpt>
      <trkpt lat="47.269529" lon="11.352403">
        <ele>682.616689</ele>
        <time>2025-10-31T10:36:46.071Z</time>
      </trkpt>
      <trkpt lat="47.269546" lon="11.352534">
        <ele>682.690348</ele>
        <time>2025-10-31T10:36:55.089Z</time>
      </trkpt>
      <trkpt lat="47.269561" lon="11.352665">
        <ele>682.763718</ele>
        <time>2025-10-31T10:37:03.089Z</time>
      </trkpt>
      <trkpt lat="47.269589" lon="11.352791">
        <ele>682.836940</ele>
        <time>2025-10-31T10:37:12.072Z</time>
      </trkpt>
      <trkpt lat="47.269605" lon="11.352924">
        <ele>682.911537</ele>
        <time>2025-10-31T10:37:21.085Z</time>
      </trkpt>
      <trkpt lat="47.269642" lon="11.353045">
        <ele>682.984834</ele>
        <time>2025-10-31T10:37:31.082Z</time>
      </trkpt>
      <trkpt lat="47.269626" lon="11.353184">
        <ele>683.062695</ele>
        <time>2025-10-31T10:37:43.092Z</time>
      </trkpt>
      <trkpt lat="47.269614" lon="11.353318">
        <ele>683.137341</ele>
        <time>2025-10-31T10:37:53.081Z</time>
      </trkpt>
      <trkpt lat="47.269596" lon="11.353458">
        <ele>682.983185</ele>
        <time>2025-10-31T10:38:02.082Z</time>
      </trkpt>
      <trkpt lat="47.269508" lon="11.353499">
        <ele>682.121132</ele>
        <time>2025-10-31T10:38:12.081Z</time>
      </trkpt>
      <trkpt lat="47.269454" lon="11.353630">
        <ele>681.149664</ele>
        <time>2025-10-31T10:38:21.074Z</time>
      </trkpt>
      <trkpt lat="47.269402" lon="11.353750">
        <ele>680.247253</ele>
        <time>2025-10-31T10:38:28.075Z</time>
      </trkpt>
      <trkpt lat="47.269371" lon="11.353888">
        <ele>679.325933</ele>
        <time>2025-10-31T10:38:38.031Z</time>
      </trkpt>
      <trkpt lat="47.269347" lon="11.354019">
        <ele>678.465931</ele>
        <time>2025-10-31T10:38:46.077Z</time>
      </trkpt>
      <trkpt lat="47.269301" lon="11.354140">
        <ele>677.586880</ele>
        <time>2025-10-31T10:38:54.070Z</time>
      </trkpt>
      <trkpt lat="47.269246" lon="11.354245">
        <ele>676.746176</ele>
        <time>2025-10-31T10:39:03.086Z</time>
      </trkpt>
      <trkpt lat="47.269180" lon="11.354338">
        <ele>675.893264</ele>
        <time>2025-10-31T10:39:12.084Z</time>
      </trkpt>
      <trkpt lat="47.269115" lon="11.354450">
        <ele>674.959190</ele>
        <time>2025-10-31T10:39:21.077Z</time>
      </trkpt>
      <trkpt lat="47.269070" lon="11.354568">
        <ele>674.101288</ele>
        <time>2025-10-31T10:39:31.081Z</time>
      </trkpt>
      <trkpt lat="47.269021" lon="11.354692">
        <ele>673.191823</ele>
        <time>2025-10-31T10:39:40.073Z</time>
      </trkpt>
      <trkpt lat="47.268982" lon="11.354822">
        <ele>672.290950</ele>
        <time>2025-10-31T10:39:49.047Z</time>
      </trkpt>
      <trkpt lat="47.268940" lon="11.354948">
        <ele>671.401208</ele>
        <time>2025-10-31T10:39:59.094Z</time>
      </trkpt>
      <trkpt lat="47.268887" lon="11.355062">
        <ele>670.525355</ele>
        <time>2025-10-31T10:40:08.083Z</time>
      </trkpt>
      <trkpt lat="47.268810" lon="11.355148">
        <ele>669.622933</ele>
        <time>2025-10-31T10:40:17.083Z</time>
      </trkpt>
      <trkpt lat="47.268721" lon="11.355182">
        <ele>668.764161</ele>
        <time>2025-10-31T10:40:26.087Z</time>
      </trkpt>
      <trkpt lat="47.268640" lon="11.355237">
        <ele>667.931144</ele>
        <time>2025-10-31T10:40:35.073Z</time>
      </trkpt>
      <trkpt lat="47.268558" lon="11.355322">
        <ele>666.994737</ele>
        <time>2025-10-31T10:40:46.088Z</time>
      </trkpt>
      <trkpt lat="47.268463" lon="11.355357">
        <ele>666.232759</ele>
        <time>2025-10-31T10:40:55.085Z</time>
      </trkpt>
      <trkpt lat="47.268370" lon="11.355322">
        <ele>665.767682</ele>
        <time>2025-10-31T10:41:11.085Z</time>
      </trkpt>
      <trkpt lat="47.268327" lon="11.355188">
        <ele>665.280327</ele>
        <time>2025-10-31T10:41:42.093Z</time>
      </trkpt>
      <trkpt lat="47.268304" lon="11.355056">
        <ele>664.832248</ele>
        <time>2025-10-31T10:41:55.085Z</time>
      </trkpt>
      <trkpt lat="47.268228" lon="11.354970">
        <ele>664.367968</ele>
        <time>2025-10-31T10:42:07.087Z</time>
      </trkpt>
      <trkpt lat="47.268208" lon="11.354829">
        <ele>663.894357</ele>
        <time>2025-10-31T10:42:23.091Z</time>
      </trkpt>
      <trkpt lat="47.268177" lon="11.354702">
        <ele>663.450602</ele>
        <time>2025-10-31T10:42:32.084Z</time>
      </trkpt>
      <trkpt lat="47.268148" lon="11.354561">
        <ele>662.966184</ele>
        <time>2025-10-31T10:42:40.085Z</time>
      </trkpt>
      <trkpt lat="47.268127" lon="11.354429">
        <ele>662.520415</ele>
        <time>2025-10-31T10:42:51.083Z</time>
      </trkpt>
      <trkpt lat="47.268103" lon="11.354290">
        <ele>662.048837</ele>
        <time>2025-10-31T10:43:00.090Z</time>
      </trkpt>
      <trkpt lat="47.268069" lon="11.354162">
        <ele>661.596892</ele>
        <time>2025-10-31T10:43:10.091Z</time>
      </trkpt>
      <trkpt lat="47.268029" lon="11.354040">
        <ele>661.151401</ele>
        <time>2025-10-31T10:43:17.087Z</time>
      </trkpt>
      <trkpt lat="47.267985" lon="11.353910">
        <ele>660.673756</ele>
        <time>2025-10-31T10:43:25.087Z</time>
      </trkpt>
      <trkpt lat="47.267999" lon="11.353775">
        <ele>660.224737</ele>
        <time>2025-10-31T10:43:33.091Z</time>
      </trkpt>
      <trkpt lat="47.267951" lon="11.353647">
        <ele>659.743898</ele>
        <time>2025-10-31T10:43:43.039Z</time>
      </trkpt>
      <trkpt lat="47.267877" lon="11.353567">
        <ele>659.299210</ele>
        <time>2025-10-31T10:43:54.062Z</time>
      </trkpt>
      <trkpt lat="47.267787" lon="11.353537">
        <ele>658.852115</ele>
        <time>2025-10-31T10:44:05.082Z</time>
      </trkpt>
      <trkpt lat="47.267691" lon="11.353530">
        <ele>658.386395</ele>
        <time>2025-10-31T10:44:13.089Z</time>
      </trkpt>
      <trkpt lat="47.267599" lon="11.353492">
        <ele>657.923447</ele>
        <time>2025-10-31T10:44:22.077Z</time>
      </trkpt>
      <trkpt lat="47.267532" lon="11.353591">
        <ele>657.361493</ele>
        <time>2025-10-31T10:44:45.029Z</time>
      </trkpt>
      <trkpt lat="47.267516" lon="11.353737">
        <ele>656.647811</ele>
        <time>2025-10-31T10:44:56.041Z</time>
      </trkpt>
      <trkpt lat="47.267509" lon="11.353875">
        <ele>655.980005</ele>
        <time>2025-10-31T10:45:05.056Z</time>
      </trkpt>
      <trkpt lat="47.267525" lon="11.354017">
        <ele>655.285372</ele>
        <time>2025-10-31T10:45:13.066Z</time>
      </trkpt>
      <trkpt lat="47.267548" lon="11.354156">
        <ele>654.594945</ele>
        <time>2025-10-31T10:45:23.070Z</time>
      </trkpt>
      <trkpt lat="47.267562" lon="11.354300">
        <ele>653.892947</ele>
        <time>2025-10-31T10:45:32.056Z</time>
      </trkpt>
      <trkpt lat="47.267269" lon="11.354331">
        <ele>651.803909</ele>
        <time>2025-10-31T10:46:19.063Z</time>
      </trkpt>
      <trkpt lat="47.267168" lon="11.354305">
        <ele>651.074769</ele>
        <time>2025-10-31T10:46:21.104Z</time>
      </trkpt>
      <trkpt lat="47.267077" lon="11.354251">
        <ele>650.377124</ele>
        <time>2025-10-31T10:46:23.053Z</time>
      </trkpt>
      <trkpt lat="47.266992" lon="11.354166">
        <ele>649.646611</ele>
        <time>2025-10-31T10:46:25.050Z</time>
      </trkpt>
      <trkpt lat="47.266899" lon="11.354075">
        <ele>648.852722</ele>
        <time>2025-10-31T10:46:27.041Z</time>
      </trkpt>
      <trkpt lat="47.266773" lon="11.353955">
        <ele>647.785831</ele>
        <time>2025-10-31T10:46:29.053Z</time>
      </trkpt>
      <trkpt lat="47.266686" lon="11.353885">
        <ele>647.080916</ele>
        <time>2025-10-31T10:46:31.056Z</time>
      </trkpt>
      <trkpt lat="47.266720" lon="11.354036">
        <ele>646.313156</ele>
        <time>2025-10-31T10:46:37.047Z</time>
      </trkpt>
      <trkpt lat="47.266745" lon="11.354170">
        <ele>645.642506</ele>
        <time>2025-10-31T10:46:39.065Z</time>
      </trkpt>
      <trkpt lat="47.266764" lon="11.354307">
        <ele>644.967708</ele>
        <time>2025-10-31T10:46:41.055Z</time>
      </trkpt>
      <trkpt lat="47.266782" lon="11.354438">
        <ele>639.826239</ele>
        <time>2025-10-31T10:46:43.048Z</time>
      </trkpt>
      <trkpt lat="47.267346" lon="11.354441">
        <ele>604.092965</ele>
        <time>2025-10-31T10:52:20.054Z</time>
      </trkpt>
      <trkpt lat="47.267247" lon="11.354467">
        <ele>597.721851</ele>
        <time>2025-10-31T10:52:22.058Z</time>
      </trkpt>
      <trkpt lat="47.267134" lon="11.354451">
        <ele>590.529601</ele>
        <time>2025-10-31T10:52:24.058Z</time>
      </trkpt>
      <trkpt lat="47.267036" lon="11.354416">
        <ele>584.140932</ele>
        <time>2025-10-31T10:52:26.056Z</time>
      </trkpt>
      <trkpt lat="47.266936" lon="11.354430">
        <ele>577.776760</ele>
        <time>2025-10-31T10:52:28.055Z</time>
      </trkpt>
      <trkpt lat="47.266815" lon="11.354454">
        <ele>570.041501</ele>
        <time>2025-10-31T10:52:30.057Z</time>
      </trkpt>
      <trkpt lat="47.266693" lon="11.354463">
        <ele>562.302335</ele>
        <time>2025-10-31T10:52:32.064Z</time>
      </trkpt>
      <trkpt lat="47.266571" lon="11.354481">
        <ele>554.534204</ele>
        <time>2025-10-31T10:52:34.058Z</time>
      </trkpt>
      <trkpt lat="47.266461" lon="11.354470">
        <ele>547.548966</ele>
        <time>2025-10-31T10:52:37.059Z</time>
      </trkpt>
      <trkpt lat="47.266365" lon="11.354460">
        <ele>541.451570</ele>
        <time>2025-10-31T10:52:42.050Z</time>
      </trkpt>
      <trkpt lat="47.266275" lon="11.354453">
        <ele>535.741552</ele>
        <time>2025-10-31T10:52:50.049Z</time>
      </trkpt>
      <trkpt lat="47.266242" lon="11.354600">
        <ele>530.935566</ele>
        <time>2025-10-31T10:52:59.050Z</time>
      </trkpt>
      <trkpt lat="47.266962" lon="11.354543">
        <ele>530.935566</ele>
        <time>2025-10-31T10:54:15.054Z</time>
      </trkpt>
      <trkpt lat="47.267125" lon="11.354531">
        <ele>530.935566</ele>
        <time>2025-10-31T10:54:18.039Z</time>
      </trkpt>
      <trkpt lat="47.267220" lon="11.354537">
        <ele>530.935566</ele>
        <time>2025-10-31T10:54:21.060Z</time>
      </trkpt>
      <trkpt lat="47.267355" lon="11.354557">
        <ele>530.935566</ele>
        <time>2025-10-31T10:54:29.059Z</time>
      </trkpt>
      <trkpt lat="47.267465" lon="11.354537">
        <ele>530.935566</ele>
        <time>2025-10-31T10:54:31.058Z</time>
      </trkpt>
      <trkpt lat="47.267581" lon="11.354509">
        <ele>530.935566</ele>
        <time>2025-10-31T10:54:33.057Z</time>
      </trkpt>
      <trkpt lat="47.267667" lon="11.354468">
        <ele>530.935566</ele>
        <time>2025-10-31T10:54:37.065Z</time>
      </trkpt>
      <trkpt lat="47.267572" lon="11.354498">
        <ele>530.935566</ele>
        <time>2025-10-31T10:54:43.049Z</time>
      </trkpt>
      <trkpt lat="47.267459" lon="11.354488">
        <ele>530.935566</ele>
        <time>2025-10-31T10:54:46.049Z</time>
      </trkpt>
      <trkpt lat="47.267343" lon="11.354505">
        <ele>530.935566</ele>
        <time>2025-10-31T10:54:50.029Z</time>
      </trkpt>
      <trkpt lat="47.267419" lon="11.354415">
        <ele>530.935566</ele>
        <time>2025-10-31T10:55:06.046Z</time>
      </trkpt>
      <trkpt lat="47.267496" lon="11.354496">
        <ele>530.935566</ele>
        <time>2025-10-31T10:55:10.021Z</time>
      </trkpt>
    </trkseg>
  </trk>
</gpx>